createdAt,value
2023-04-01T00:00:20.127Z,14.08
2023-04-01T00:02:49.315Z,14.07
2023-04-01T00:05:17.699Z,14.05
2023-04-01T00:07:45.651Z,14.06
2023-04-01T00:10:13.835Z,14.10
2023-04-01T00:12:41.807Z,14.10
2023-04-01T00:15:11.000Z,14.12
2023-04-01T00:17:39.327Z,14.11
2023-04-01T00:20:10.254Z,14.10
2023-04-01T00:22:38.330Z,14.12
2023-04-01T00:25:06.985Z,14.11
2023-04-01T00:27:34.661Z,13.98
2023-04-01T00:30:02.487Z,14.02
2023-04-01T00:32:31.495Z,13.92
2023-04-01T00:35:00.424Z,13.94
2023-04-01T00:37:29.751Z,14.03
2023-04-01T00:39:57.867Z,13.99
2023-04-01T00:42:26.714Z,13.96
2023-04-01T00:44:55.373Z,13.99
2023-04-01T00:47:23.338Z,13.94
2023-04-01T00:49:52.197Z,13.91
2023-04-01T00:52:21.081Z,13.93
2023-04-01T00:54:51.567Z,13.91
2023-04-01T00:57:21.025Z,13.87
2023-04-01T00:59:50.751Z,13.91
2023-04-01T01:02:19.438Z,13.56
2023-04-01T01:04:47.719Z,13.84
2023-04-01T01:07:21.491Z,13.67
2023-04-01T01:09:53.877Z,13.81
2023-04-01T01:12:22.708Z,13.65
2023-04-01T01:15:00.539Z,13.60
2023-04-01T01:17:36.459Z,13.83
2023-04-01T01:20:36.715Z,13.86
2023-04-01T01:23:25.336Z,13.79
2023-04-01T01:25:58.758Z,13.80
2023-04-01T01:28:33.836Z,13.81
2023-04-01T01:31:04.357Z,13.80
2023-04-01T01:33:44.949Z,13.86
2023-04-01T01:36:14.778Z,13.87
2023-04-01T01:38:42.673Z,13.78
2023-04-01T01:41:10.355Z,13.81
2023-04-01T01:43:39.490Z,13.79
2023-04-01T01:46:08.752Z,13.54
2023-04-01T01:48:37.124Z,13.78
2023-04-01T01:51:05.243Z,13.77
2023-04-01T01:53:34.376Z,13.73
2023-04-01T01:56:02.470Z,13.72
2023-04-01T01:58:31.687Z,13.69
2023-04-01T02:00:59.853Z,13.58
2023-04-01T02:03:28.513Z,13.47
2023-04-01T02:05:57.303Z,13.71
2023-04-01T02:08:26.378Z,13.64
2023-04-01T02:10:58.054Z,13.45
2023-04-01T02:13:28.785Z,13.71
2023-04-01T02:15:58.065Z,13.73
2023-04-01T02:21:00.350Z,13.82
2023-04-01T02:23:28.018Z,13.82
2023-04-01T02:25:57.280Z,13.80
2023-04-01T02:28:24.951Z,13.81
2023-04-01T02:30:52.687Z,13.79
2023-04-01T02:33:21.162Z,13.81
2023-04-01T02:35:48.957Z,13.75
2023-04-01T02:38:17.444Z,13.74
2023-04-01T02:40:47.068Z,13.75
2023-04-01T02:43:17.121Z,13.70
2023-04-01T02:45:44.968Z,13.70
2023-04-01T02:48:13.693Z,13.66
2023-04-01T02:50:41.378Z,13.64
2023-04-01T02:53:09.314Z,13.57
2023-04-01T02:55:36.946Z,13.57
2023-04-01T02:58:04.810Z,13.50
2023-04-01T03:00:33.883Z,13.47
2023-04-01T03:03:01.819Z,13.40
2023-04-01T03:05:29.577Z,13.36
2023-04-01T03:07:57.395Z,13.33
2023-04-01T03:10:25.017Z,13.34
2023-04-01T03:12:52.775Z,13.30
2023-04-01T03:15:20.603Z,13.28
2023-04-01T03:17:49.816Z,13.19
2023-04-01T03:20:18.004Z,13.19
2023-04-01T03:22:45.648Z,13.17
2023-04-01T03:25:13.478Z,13.18
2023-04-01T03:27:41.244Z,13.19
2023-04-01T03:30:10.433Z,13.09
2023-04-01T03:32:39.026Z,13.11
2023-04-01T03:35:10.631Z,13.09
2023-04-01T03:37:38.301Z,13.08
2023-04-01T03:40:07.462Z,13.06
2023-04-01T03:42:35.896Z,13.11
2023-04-01T03:45:04.284Z,13.05
2023-04-01T03:47:31.947Z,13.15
2023-04-01T03:49:59.761Z,13.12
2023-04-01T03:52:28.760Z,13.16
2023-04-01T03:54:57.119Z,13.19
2023-04-01T03:57:24.807Z,13.19
2023-04-01T03:59:52.661Z,13.11
2023-04-01T04:02:20.437Z,13.17
2023-04-01T04:04:48.543Z,13.22
2023-04-01T04:07:16.178Z,13.26
2023-04-01T04:09:45.452Z,13.22
2023-04-01T04:12:13.089Z,13.25
2023-04-01T04:14:40.905Z,13.32
2023-04-01T04:17:09.180Z,13.28
2023-04-01T04:19:36.829Z,13.33
2023-04-01T04:22:04.646Z,13.37
2023-04-01T04:24:32.297Z,13.26
2023-04-01T04:27:01.524Z,13.40
2023-04-01T04:29:29.154Z,13.42
2023-04-01T04:31:57.098Z,13.45
2023-04-01T04:34:24.833Z,13.42
2023-04-01T04:36:52.657Z,13.49
2023-04-01T04:39:22.323Z,13.54
2023-04-01T04:41:50.232Z,13.56
2023-04-01T04:44:19.254Z,13.55
2023-04-01T04:46:47.242Z,13.57
2023-04-01T04:49:14.962Z,13.57
2023-04-01T04:51:42.979Z,13.65
2023-04-01T04:54:10.655Z,13.66
2023-04-01T04:56:38.550Z,13.67
2023-04-01T04:59:06.275Z,13.70
2023-04-01T05:01:35.463Z,13.63
2023-04-01T05:04:03.268Z,13.65
2023-04-01T05:06:32.258Z,13.65
2023-04-01T05:08:59.898Z,13.67
2023-04-01T05:11:28.264Z,13.72
2023-04-01T05:13:55.962Z,13.69
2023-04-01T05:16:23.894Z,13.71
2023-04-01T05:18:55.188Z,13.71
2023-04-01T05:21:22.799Z,13.71
2023-04-01T05:23:51.611Z,13.73
2023-04-01T05:26:19.220Z,13.75
2023-04-01T05:28:47.043Z,13.75
2023-04-01T05:31:14.725Z,13.78
2023-04-01T05:33:42.583Z,13.78
2023-04-01T05:36:13.060Z,13.76
2023-04-01T05:38:41.162Z,13.78
2023-04-01T05:41:08.866Z,13.75
2023-04-01T05:43:37.866Z,13.78
2023-04-01T05:46:05.678Z,13.85
2023-04-01T05:48:34.964Z,13.82
2023-04-01T05:51:02.735Z,13.86
2023-04-01T05:53:31.898Z,13.87
2023-04-01T05:56:03.781Z,13.89
2023-04-01T05:58:32.674Z,13.86
2023-04-01T06:01:10.110Z,13.88
2023-04-01T06:03:40.610Z,13.81
2023-04-01T06:06:12.921Z,13.80
2023-04-01T06:08:41.941Z,13.81
2023-04-01T06:11:18.709Z,13.88
2023-04-01T06:14:06.571Z,13.87
2023-04-01T06:16:38.905Z,13.90
2023-04-01T06:19:15.350Z,13.96
2023-04-01T06:22:01.200Z,13.92
2023-04-01T06:24:46.116Z,14.02
2023-04-01T06:27:19.106Z,13.72
2023-04-01T06:29:52.526Z,14.04
2023-04-01T06:32:38.784Z,14.06
2023-04-01T06:35:20.640Z,13.94
2023-04-01T06:38:04.163Z,14.11
2023-04-01T06:40:59.008Z,14.13
2023-04-01T06:43:28.075Z,14.11
2023-04-01T06:45:57.230Z,14.10
2023-04-01T06:48:34.643Z,14.10
2023-04-01T06:51:05.602Z,14.13
2023-04-01T06:53:35.365Z,14.11
2023-04-01T06:56:08.392Z,14.13
2023-04-01T06:58:38.164Z,13.90
2023-04-01T07:01:06.671Z,14.17
2023-04-01T07:03:35.751Z,14.25
2023-04-01T07:06:05.185Z,14.25
2023-04-01T07:08:34.093Z,14.33
2023-04-01T07:11:03.466Z,14.40
2023-04-01T07:13:34.023Z,14.43
2023-04-01T07:16:07.296Z,14.45
2023-04-01T07:18:38.063Z,14.43
2023-04-01T07:21:06.387Z,14.41
2023-04-01T07:23:35.285Z,14.42
2023-04-01T07:26:06.069Z,14.44
2023-04-01T07:28:35.776Z,14.46
2023-04-01T07:31:09.866Z,14.48
2023-04-01T07:33:39.809Z,14.41
2023-04-01T07:36:10.302Z,14.46
2023-04-01T07:38:42.365Z,14.07
2023-04-01T07:41:12.803Z,14.49
2023-04-01T07:43:53.330Z,14.52
2023-04-01T07:46:31.674Z,14.50
2023-04-01T07:49:01.249Z,14.57
2023-04-01T07:51:31.147Z,14.22
2023-04-01T07:54:02.838Z,14.61
2023-04-01T07:56:32.519Z,14.46
2023-04-01T07:59:04.588Z,14.54
2023-04-01T08:01:34.731Z,14.69
2023-04-01T08:04:22.504Z,14.58
2023-04-01T08:06:52.897Z,14.74
2023-04-01T08:09:25.030Z,14.77
2023-04-01T08:12:01.723Z,14.74
2023-04-01T08:14:32.863Z,14.73
2023-04-01T08:17:03.503Z,14.77
2023-04-01T08:19:34.065Z,14.76
2023-04-01T08:22:05.566Z,14.72
2023-04-01T08:24:46.320Z,14.73
2023-04-01T08:27:18.161Z,14.75
2023-04-01T08:29:50.332Z,14.76
2023-04-01T08:32:18.530Z,14.64
2023-04-01T08:34:47.522Z,14.81
2023-04-01T08:37:18.592Z,14.76
2023-04-01T08:39:47.765Z,14.82
2023-04-01T08:42:34.308Z,14.86
2023-04-01T08:45:24.321Z,14.91
2023-04-01T08:47:59.198Z,14.84
2023-04-01T08:50:52.592Z,14.92
2023-04-01T08:53:23.188Z,14.72
2023-04-01T08:56:03.372Z,14.86
2023-04-01T08:59:00.754Z,14.91
2023-04-01T09:01:48.831Z,14.83
2023-04-01T09:04:28.063Z,14.88
2023-04-01T09:07:02.728Z,14.75
2023-04-01T09:10:10.351Z,15.04
2023-04-01T09:12:52.052Z,15.00
2023-04-01T09:15:32.585Z,14.86
2023-04-01T09:18:32.864Z,15.07
2023-04-01T09:21:30.457Z,15.08
2023-04-01T09:24:16.674Z,15.09
2023-04-01T09:26:57.298Z,15.09
2023-04-01T09:29:33.621Z,15.10
2023-04-01T09:32:15.193Z,14.85
2023-04-01T09:34:54.792Z,15.08
2023-04-01T09:37:22.866Z,15.07
2023-04-01T09:40:01.800Z,14.99
2023-04-01T09:42:46.984Z,14.91
2023-04-01T09:45:23.462Z,14.97
2023-04-01T09:47:58.174Z,14.63
2023-04-01T09:50:43.972Z,15.00
2023-04-01T09:53:20.925Z,15.03
2023-04-01T09:56:24.774Z,15.01
2023-04-01T09:59:07.028Z,15.04
2023-04-01T10:02:22.880Z,15.11
2023-04-01T10:05:33.094Z,15.11
2023-04-01T10:08:35.940Z,14.93
2023-04-01T10:11:23.524Z,15.08
2023-04-01T10:14:20.791Z,15.17
2023-04-01T10:17:00.134Z,15.15
2023-04-01T10:19:50.802Z,15.31
2023-04-01T10:22:31.235Z,15.23
2023-04-01T10:25:37.409Z,15.38
2023-04-01T10:28:18.435Z,15.43
2023-04-01T10:31:15.899Z,15.45
2023-04-01T10:34:03.669Z,15.37
2023-04-01T10:36:48.984Z,14.97
2023-04-01T10:39:31.643Z,15.34
2023-04-01T10:42:49.945Z,15.43
2023-04-01T10:45:41.946Z,15.45
2023-04-01T10:48:16.694Z,15.54
2023-04-01T10:50:56.132Z,15.39
2023-04-01T10:53:46.448Z,15.64
2023-04-01T10:56:41.546Z,15.74
2023-04-01T10:59:41.946Z,15.28
2023-04-01T11:02:57.300Z,15.76
2023-04-01T11:06:07.899Z,15.69
2023-04-01T11:09:05.681Z,15.68
2023-04-01T11:12:09.938Z,15.68
2023-04-01T11:15:11.163Z,15.67
2023-04-01T11:17:50.127Z,15.58
2023-04-01T11:20:53.171Z,15.67
2023-04-01T11:23:32.869Z,15.69
2023-04-01T11:26:11.649Z,15.70
2023-04-01T11:29:05.307Z,15.73
2023-04-01T11:31:38.708Z,15.71
2023-04-01T11:34:13.815Z,15.70
2023-04-01T11:36:47.006Z,15.61
2023-04-01T11:39:22.631Z,15.64
2023-04-01T11:41:54.060Z,15.64
2023-04-01T11:44:23.446Z,15.66
2023-04-01T11:46:58.861Z,15.61
2023-04-01T11:49:32.517Z,15.73
2023-04-01T11:52:09.185Z,15.74
2023-04-01T11:55:02.462Z,15.83
2023-04-01T11:57:42.260Z,15.81
2023-04-01T12:00:21.518Z,15.67
2023-04-01T12:02:53.868Z,15.80
2023-04-01T12:05:26.616Z,15.75
2023-04-01T12:08:05.228Z,15.85
2023-04-01T12:10:36.722Z,15.90
2023-04-01T12:13:06.679Z,15.90
2023-04-01T12:15:39.886Z,15.78
2023-04-01T12:18:15.553Z,15.79
2023-04-01T12:20:49.258Z,15.75
2023-04-01T12:23:35.373Z,15.50
2023-04-01T12:26:15.767Z,15.83
2023-04-01T12:28:48.628Z,15.80
2023-04-01T12:31:24.712Z,15.79
2023-04-01T12:33:58.816Z,15.80
2023-04-01T12:36:34.609Z,15.83
2023-04-01T12:39:25.354Z,15.60
2023-04-01T12:41:56.753Z,15.82
2023-04-01T12:44:36.302Z,15.76
2023-04-01T12:47:35.257Z,15.74
2023-04-01T12:50:16.660Z,15.74
2023-04-01T12:52:51.649Z,15.67
2023-04-01T12:55:39.950Z,15.68
2023-04-01T12:59:00.979Z,15.68
2023-04-01T13:01:41.599Z,15.62
2023-04-01T13:04:31.435Z,15.61
2023-04-01T13:07:12.252Z,15.37
2023-04-01T13:09:45.097Z,15.69
2023-04-01T13:12:28.903Z,15.71
2023-04-01T13:15:28.139Z,15.72
2023-04-01T13:17:57.118Z,15.69
2023-04-01T13:20:31.327Z,15.56
2023-04-01T13:23:06.229Z,15.72
2023-04-01T13:25:38.519Z,15.75
2023-04-01T13:28:12.676Z,15.75
2023-04-01T13:30:43.354Z,15.74
2023-04-01T13:33:15.866Z,15.47
2023-04-01T13:35:45.782Z,15.79
2023-04-01T13:38:27.024Z,15.81
2023-04-01T13:41:03.040Z,15.82
2023-04-01T13:43:33.919Z,15.87
2023-04-01T13:46:18.365Z,15.93
2023-04-01T13:49:06.019Z,15.72
2023-04-01T13:52:06.193Z,15.95
2023-04-01T13:55:03.757Z,15.82
2023-04-01T13:57:44.857Z,15.85
2023-04-01T14:00:36.189Z,15.95
2023-04-01T14:03:32.398Z,15.95
2023-04-01T14:06:11.367Z,15.93
2023-04-01T14:09:04.805Z,15.95
2023-04-01T14:11:34.739Z,15.95
2023-04-01T14:14:06.786Z,15.91
2023-04-01T14:16:57.377Z,15.89
2023-04-01T14:19:32.342Z,15.93
2023-04-01T14:22:03.104Z,15.98
2023-04-01T14:24:38.356Z,15.99
2023-04-01T14:27:28.998Z,15.79
2023-04-01T14:30:06.075Z,15.63
2023-04-01T14:32:40.819Z,15.83
2023-04-01T14:35:27.828Z,15.87
2023-04-01T14:38:05.091Z,15.49
2023-04-01T14:40:41.015Z,15.60
2023-04-01T14:43:16.955Z,15.87
2023-04-01T14:45:48.511Z,15.89
2023-04-01T14:48:23.719Z,15.61
2023-04-01T14:50:52.136Z,15.90
2023-04-01T14:53:28.428Z,15.91
2023-04-01T14:55:56.949Z,15.93
2023-04-01T14:58:27.145Z,15.81
2023-04-01T15:01:01.029Z,15.91
2023-04-01T15:03:31.873Z,15.89
2023-04-01T15:06:14.446Z,15.89
2023-04-01T15:08:45.468Z,15.86
2023-04-01T15:11:19.759Z,15.86
2023-04-01T15:14:03.561Z,15.84
2023-04-01T15:16:33.832Z,15.52
2023-04-01T15:19:09.446Z,15.79
2023-04-01T15:21:52.052Z,15.82
2023-04-01T15:24:23.560Z,15.75
2023-04-01T15:27:04.141Z,15.82
2023-04-01T15:29:41.355Z,15.62
2023-04-01T15:32:15.724Z,15.48
2023-04-01T15:34:46.631Z,15.80
2023-04-01T15:37:16.819Z,15.85
2023-04-01T15:39:51.044Z,15.90
2023-04-01T15:42:26.541Z,15.92
2023-04-01T15:45:02.404Z,15.96
2023-04-01T15:47:35.155Z,15.93
2023-04-01T15:50:20.467Z,15.96
2023-04-01T15:52:51.832Z,15.94
2023-04-01T15:55:23.009Z,15.91
2023-04-01T15:57:58.412Z,15.54
2023-04-01T16:00:29.695Z,15.79
2023-04-01T16:03:16.358Z,15.86
2023-04-01T16:05:51.221Z,15.83
2023-04-01T16:08:40.398Z,15.85
2023-04-01T16:11:17.940Z,15.83
2023-04-01T16:13:51.191Z,15.86
2023-04-01T16:16:26.912Z,15.55
2023-04-01T16:19:13.414Z,15.83
2023-04-01T16:21:46.298Z,15.65
2023-04-01T16:26:52.394Z,15.69
2023-04-01T16:29:25.276Z,15.30
2023-04-01T16:31:55.086Z,15.64
2023-04-01T16:34:26.851Z,15.37
2023-04-01T16:36:57.944Z,15.61
2023-04-01T16:39:31.063Z,15.56
2023-04-01T16:42:16.164Z,15.53
2023-04-01T16:44:49.250Z,15.52
2023-04-01T16:47:17.890Z,15.48
2023-04-01T16:49:48.601Z,15.46
2023-04-01T16:52:19.567Z,15.19
2023-04-01T16:54:52.459Z,15.43
2023-04-01T16:57:21.865Z,15.11
2023-04-01T16:59:55.357Z,15.18
2023-04-01T17:02:25.657Z,15.35
2023-04-01T17:04:59.470Z,15.34
2023-04-01T17:07:33.618Z,15.27
2023-04-01T17:10:37.848Z,15.40
2023-04-01T17:13:35.390Z,15.36
2023-04-01T17:16:09.208Z,15.33
2023-04-01T17:18:39.583Z,15.34
2023-04-01T17:21:09.797Z,15.28
2023-04-01T17:24:11.477Z,15.28
2023-04-01T17:27:03.458Z,15.22
2023-04-01T17:29:33.903Z,15.19
2023-04-01T17:32:06.049Z,15.15
2023-04-01T17:34:42.249Z,14.83
2023-04-01T17:37:24.305Z,15.17
2023-04-01T17:40:02.520Z,15.14
2023-04-01T17:42:36.568Z,15.19
2023-04-01T17:45:06.481Z,15.19
2023-04-01T17:47:39.787Z,15.18
2023-04-01T17:50:16.362Z,14.99
2023-04-01T17:52:46.021Z,15.03
2023-04-01T17:55:34.236Z,15.08
2023-04-01T17:58:04.503Z,15.10
2023-04-01T18:00:45.968Z,15.12
2023-04-01T18:05:54.558Z,14.71
2023-04-01T18:08:30.170Z,15.18
2023-04-01T18:11:06.773Z,14.83
2023-04-01T18:17:23.557Z,14.15
2023-04-01T18:19:59.747Z,15.11
2023-04-01T18:22:30.778Z,13.65
2023-04-01T18:25:00.805Z,13.15
2023-04-01T18:27:32.652Z,12.87
2023-04-01T18:30:04.435Z,12.40
2023-04-01T18:32:37.859Z,13.72
2023-04-01T18:35:18.446Z,14.03
2023-04-01T18:38:44.528Z,14.07
2023-04-01T18:41:16.203Z,13.00
2023-04-01T18:43:57.025Z,14.67
2023-04-01T18:46:28.196Z,14.36
2023-04-01T18:49:02.887Z,14.83
2023-04-01T18:51:38.957Z,14.64
2023-04-01T18:54:08.136Z,14.91
2023-04-01T18:56:37.161Z,14.63
2023-04-01T18:59:08.516Z,14.58
2023-04-01T19:01:40.087Z,15.00
2023-04-01T19:04:18.369Z,14.99
2023-04-01T19:06:48.613Z,15.01
2023-04-01T19:09:22.471Z,14.26
2023-04-01T19:12:29.044Z,15.02
2023-04-01T19:15:09.624Z,13.61
2023-04-01T19:17:49.686Z,14.77
2023-04-01T19:20:20.690Z,14.98
2023-04-01T19:23:04.541Z,14.60
2023-04-01T19:25:35.391Z,13.12
2023-04-01T19:28:06.626Z,14.41
2023-04-01T19:30:41.127Z,14.54
2023-04-01T19:33:20.468Z,14.94
2023-04-01T19:35:51.053Z,13.73
2023-04-01T19:38:24.677Z,14.41
2023-04-01T19:40:55.730Z,13.13
2023-04-01T19:43:47.526Z,13.58
2023-04-01T19:46:21.525Z,14.54
2023-04-01T19:49:25.033Z,14.13
2023-04-01T19:51:55.856Z,14.44
2023-04-01T19:54:30.567Z,13.80
2023-04-01T19:57:03.115Z,12.98
2023-04-01T19:59:35.879Z,14.35
2023-04-01T20:02:23.766Z,14.68
2023-04-01T20:04:53.318Z,14.86
2023-04-01T20:07:23.975Z,14.88
2023-04-01T20:09:57.284Z,14.65
2023-04-01T20:12:35.084Z,14.38
2023-04-01T20:15:04.961Z,14.25
2023-04-01T20:17:36.205Z,14.75
2023-04-01T20:20:05.429Z,13.82
2023-04-01T20:23:08.019Z,13.43
2023-04-01T20:25:40.717Z,14.43
2023-04-01T20:28:13.749Z,14.55
2023-04-01T20:30:50.333Z,14.83
2023-04-01T20:33:32.729Z,12.77
2023-04-01T20:36:09.642Z,13.86
2023-04-01T20:39:28.328Z,14.86
2023-04-01T20:42:13.426Z,14.22
2023-04-01T20:44:42.885Z,14.32
2023-04-01T20:47:17.196Z,12.88
2023-04-01T20:49:48.541Z,14.49
2023-04-01T20:52:23.032Z,13.23
2023-04-01T20:55:04.474Z,14.77
2023-04-01T20:57:34.133Z,14.72
2023-04-01T21:00:15.701Z,14.26
2023-04-01T21:02:54.116Z,14.11
2023-04-01T21:06:01.380Z,14.79
2023-04-01T21:08:36.433Z,14.26
2023-04-01T21:11:06.816Z,13.67
2023-04-01T21:13:47.221Z,14.81
2023-04-01T21:16:26.065Z,14.82
2023-04-01T21:19:06.772Z,14.83
2023-04-01T21:22:01.665Z,14.86
2023-04-01T21:24:37.471Z,14.83
2023-04-01T21:27:09.479Z,13.79
2023-04-01T21:29:45.833Z,14.84
2023-04-01T21:32:29.285Z,14.84
2023-04-01T21:34:59.035Z,14.84
2023-04-01T21:37:38.450Z,13.36
2023-04-01T21:40:22.076Z,14.68
2023-04-01T21:42:51.365Z,14.85
2023-04-01T21:45:24.639Z,14.66
2023-04-01T21:48:12.137Z,13.82
2023-04-01T21:51:21.346Z,14.89
2023-04-01T21:54:19.416Z,14.44
2023-04-01T21:57:05.491Z,14.04
2023-04-01T22:00:17.204Z,14.85
2023-04-01T22:03:23.952Z,14.80
2023-04-01T22:06:02.049Z,14.78
2023-04-01T22:08:42.037Z,14.57
2023-04-01T22:11:13.379Z,13.68
2023-04-01T22:13:45.254Z,14.39
2023-04-01T22:16:16.283Z,14.35
2023-04-01T22:18:47.218Z,14.22
2023-04-01T22:21:22.174Z,14.71
2023-04-01T22:26:19.961Z,14.23
2023-04-01T22:28:53.488Z,14.52
2023-04-01T22:31:23.850Z,14.44
2023-04-01T22:33:55.103Z,14.29
2023-04-01T22:36:26.079Z,14.24
2023-04-01T22:39:04.477Z,14.19
2023-04-01T22:41:42.690Z,14.17
2023-04-01T22:44:17.900Z,14.13
2023-04-01T22:46:51.495Z,14.09
2023-04-01T22:49:23.309Z,13.97
2023-04-01T22:51:52.917Z,13.95
2023-04-01T22:54:23.360Z,13.88
2023-04-01T22:56:53.667Z,13.87
2023-04-01T22:59:24.951Z,13.78
2023-04-01T23:01:55.121Z,13.68
2023-04-01T23:04:25.777Z,13.72
2023-04-01T23:06:55.793Z,13.59
2023-04-01T23:09:23.751Z,13.67
2023-04-01T23:11:52.942Z,13.58
2023-04-01T23:14:51.088Z,13.34
2023-04-01T23:17:43.048Z,13.29
2023-04-01T23:20:22.633Z,13.47
2023-04-01T23:22:56.988Z,13.34
2023-04-01T23:25:37.517Z,13.36
2023-04-01T23:28:34.343Z,13.28
2023-04-01T23:31:04.569Z,13.27
2023-04-01T23:33:32.558Z,13.20
2023-04-01T23:36:06.209Z,13.24
2023-04-01T23:38:35.459Z,13.26
2023-04-01T23:41:03.195Z,13.03
2023-04-01T23:43:33.190Z,13.25
2023-04-01T23:46:01.927Z,13.16
2023-04-01T23:48:32.680Z,13.03
2023-04-01T23:51:00.424Z,13.05
2023-04-01T23:53:30.457Z,13.06
2023-04-01T23:55:58.131Z,13.05
2023-04-01T23:58:27.890Z,12.98
